Terminal Aerodrome Forecast
Issued by NWS Raleigh/Durham, NC

Home | Current Version | Previous Version | Text Only | Print | Product List | Glossary On
Versions: 1 2 3 4 5 6 7 8 9 10 11 12 13 14 15 16 17 18 19 20 21 22 23 24 25 26 27 28 29 30 31 32 33 34 35 36 37 38 39 40 41 42 43 44
000
FTUS42 KRAH 291255 AAA
TAFRDU
TAF AMD
KRDU 291255Z 2913/3012 16006KT P6SM SCT007 SCT025 BKN080
      TEMPO 2913/2915 BKN007
     FM291500 15008KT P6SM VCSH SCT035 BKN050
      TEMPO 2919/2923 VRB15G30KT 2SM -TSRA SCT020 BKN040CB
     FM300300 08008KT 6SM BR SCT007 OVC015
     FM300600 13007KT 4SM BR OVC004=

USA.gov is the U.S. government's official web portal to all federal, state and local government web resources and services.